Time;durP1;ratioP1;P1;durP2;ratioP2;P2;SDS_P1;SDS_P2;PMS_P1;PMS_P2;Temp;Humidity;BMP_temperature;BMP_pressure;BME280_temperature;BME280_humidity;BME280_pressure;Samples;Min_cycle;Max_cycle;Signal;HPM_P1;HPM_P2
2021/04/18 00:00:19;;;;;;;17.55;11.10;;;;;;;6.86;100.00;101160.52;1816874;79;21112;-49
2021/04/18 00:02:47;;;;;;;17.12;12.40;;;;;;;6.85;100.00;101164.09;1817020;79;21376;-52
2021/04/18 00:05:22;;;;;;;17.23;12.82;;;;;;;6.85;100.00;101161.42;1816800;79;21056;-52
2021/04/18 00:07:50;;;;;;;21.20;15.43;;;;;;;6.86;100.00;101167.18;1816844;79;21163;-52
2021/04/18 00:10:21;;;;;;;26.82;18.52;;;;;;;6.88;100.00;101165.84;1816732;79;21072;-52
2021/04/18 00:12:50;;;;;;;48.20;26.12;;;;;;;6.88;100.00;101166.71;1816894;78;21171;-52
2021/04/18 00:15:18;;;;;;;58.00;24.15;;;;;;;6.87;100.00;101162.28;1816751;79;21264;-51
2021/04/18 00:17:47;;;;;;;85.83;25.80;;;;;;;6.85;100.00;101157.42;1816878;79;21088;-52
2021/04/18 00:20:15;;;;;;;84.32;22.05;;;;;;;6.82;100.00;101157.47;1816935;79;21052;-52
2021/04/18 00:22:43;;;;;;;85.92;23.18;;;;;;;6.80;100.00;101149.95;1816812;79;21131;-52
2021/04/18 00:25:12;;;;;;;31.37;18.50;;;;;;;6.79;100.00;101155.28;1816914;79;21539;-52
2021/04/18 00:27:40;;;;;;;45.98;18.55;;;;;;;6.74;100.00;101152.66;1816893;79;21159;-52
2021/04/18 00:30:10;;;;;;;39.40;20.60;;;;;;;6.73;100.00;101149.14;1816784;79;21080;-52
2021/04/18 00:32:38;;;;;;;29.40;15.55;;;;;;;6.73;100.00;101141.58;1816808;79;21163;-51
2021/04/18 00:35:07;;;;;;;31.97;13.60;;;;;;;6.73;100.00;101143.80;1816854;79;21559;-51
2021/04/18 00:37:35;;;;;;;33.33;16.02;;;;;;;6.73;100.00;101150.47;1818716;78;21492;-52
2021/04/18 00:40:09;;;;;;;63.55;21.10;;;;;;;6.73;100.00;101142.91;1820566;78;21415;-51
2021/04/18 00:42:36;;;;;;;43.85;19.45;;;;;;;6.75;100.00;101146.47;1820471;78;21064;-51
2021/04/18 00:45:07;;;;;;;38.38;18.50;;;;;;;6.74;100.00;101154.00;1820512;78;21056;-51
2021/04/18 00:47:34;;;;;;;23.40;15.55;;;;;;;6.72;100.00;101157.14;1820499;78;21056;-51
2021/04/18 00:50:04;;;;;;;38.40;19.85;;;;;;;6.69;100.00;101157.17;1820586;78;21127;-51
2021/04/18 00:52:32;;;;;;;30.20;18.12;;;;;;;6.64;100.00;101163.02;1820548;78;21366;-51
2021/04/18 00:54:59;;;;;;;42.73;21.40;;;;;;;6.52;100.00;101158.28;1820572;78;21517;-51
2021/04/18 00:57:27;;;;;;;30.92;19.95;;;;;;;6.35;100.00;101161.58;1816907;78;21198;-51
2021/04/18 00:59:55;;;;;;;30.97;20.08;;;;;;;6.23;100.00;101165.26;1828933;78;21351;-51
2021/04/18 01:02:22;;;;;;;31.23;19.80;;;;;;;6.20;100.00;101164.83;1761151;81;21193;-51
2021/04/18 01:04:50;;;;;;;33.13;20.10;;;;;;;6.19;100.00;101163.06;1814450;78;21367;-51
2021/04/18 01:07:18;;;;;;;41.10;21.68;;;;;;;6.20;100.00;101167.48;1814443;79;21126;-51
2021/04/18 01:09:46;;;;;;;60.08;24.45;;;;;;;5.99;100.00;101158.78;1814469;79;21091;-53
2021/04/18 01:12:14;;;;;;;42.75;22.52;;;;;;;5.99;100.00;101158.78;1761083;81;21129;-50
2021/04/18 01:14:42;;;;;;;50.25;25.32;;;;;;;5.84;100.00;101154.92;1814368;79;21143;-51
2021/04/18 01:17:10;;;;;;;31.55;16.80;;;;;;;5.69;100.00;101180.78;1814584;79;22258;-50
2021/04/18 01:19:39;;;;;;;21.23;14.00;;;;;;;5.58;100.00;101161.34;1814362;79;21063;-50
2021/04/18 01:22:07;;;;;;;19.12;13.62;;;;;;;5.62;100.00;101156.42;1814397;79;21036;-52
2021/04/18 01:24:39;;;;;;;23.65;14.05;;;;;;;5.62;100.00;101156.42;1813021;79;21154;-52
2021/04/18 01:27:26;;;;;;;38.63;18.23;;;;;;;5.67;100.00;101150.64;1761082;81;21083;-50
2021/04/18 01:29:54;;;;;;;38.20;18.60;;;;;;;5.67;100.00;101153.30;1814463;79;21437;-50
2021/04/18 01:32:22;;;;;;;31.42;18.30;;;;;;;5.58;100.00;101153.36;1828739;78;21133;-50
2021/04/18 01:34:50;;;;;;;31.65;18.25;;;;;;;5.53;100.00;101155.18;1761058;81;21170;-51
2021/04/18 01:37:19;;;;;;;35.45;20.85;;;;;;;5.56;100.00;101151.16;1813428;79;21055;-51
2021/04/18 01:39:48;;;;;;;34.60;20.40;;;;;;;5.59;100.00;101156.45;1810838;79;21027;-51
2021/04/18 01:42:15;;;;;;;36.83;18.98;;;;;;;5.59;100.00;101156.45;1810749;79;21357;-50
2021/04/18 01:44:44;;;;;;;40.08;18.70;;;;;;;5.52;100.00;101160.06;1733923;82;21150;-50
2021/04/18 01:47:12;;;;;;;64.00;21.82;;;;;;;5.39;100.00;101157.48;1764254;81;21130;-50
2021/04/18 01:49:40;;;;;;;42.62;17.07;;;;;;;5.21;100.00;101160.29;1764217;81;21158;-50
2021/04/18 01:52:09;;;;;;;39.65;17.52;;;;;;;5.21;100.00;101160.29;1734052;81;21050;-50
2021/04/18 01:54:38;;;;;;;36.85;19.00;;;;;;;5.05;100.00;101152.39;1764178;81;21697;-51
2021/04/18 01:57:07;;;;;;;27.67;16.15;;;;;;;5.00;100.00;101155.53;1779243;79;21054;-51
2021/04/18 01:59:36;;;;;;;23.60;16.48;;;;;;;4.97;100.00;101156.84;1795961;79;21481;-50
2021/04/18 02:02:22;;;;;;;22.15;15.68;;;;;;;5.06;100.00;101149.27;1796639;79;21128;-51
2021/04/18 02:04:53;;;;;;;29.70;17.75;;;;;;;5.06;100.00;101149.27;1795864;79;21140;-51
2021/04/18 02:07:23;;;;;;;37.08;18.55;;;;;;;5.19;100.00;101146.98;1796622;79;21516;-51
2021/04/18 02:09:51;;;;;;;30.00;17.73;;;;;;;5.19;100.00;101146.98;1796553;79;21115;-51
2021/04/18 02:12:20;;;;;;;28.42;17.70;;;;;;;5.27;100.00;101146.48;1796599;79;21172;-51
2021/04/18 02:14:47;;;;;;;36.90;20.30;;;;;;;5.34;100.00;101136.69;1796546;79;21097;-51
2021/04/18 02:17:18;;;;;;;34.80;19.75;;;;;;;5.40;100.00;101145.95;1796426;79;21143;-51
2021/04/18 02:19:47;;;;;;;32.20;20.52;;;;;;;5.43;100.00;101140.63;1796595;79;21696;-51
2021/04/18 02:22:15;;;;;;;31.62;19.90;;;;;;;5.40;100.00;101136.64;1796497;79;21057;-51
2021/04/18 02:24:44;;;;;;;28.20;18.02;;;;;;;5.40;100.00;101133.12;1796423;79;21097;-51
2021/04/18 02:27:12;;;;;;;23.10;14.60;;;;;;;5.40;100.00;101135.31;1796500;79;21105;-51
2021/04/18 02:29:42;;;;;;;23.32;14.47;;;;;;;5.42;100.00;101133.55;1791138;79;21120;-51
2021/04/18 02:32:12;;;;;;;21.02;13.50;;;;;;;5.51;100.00;101131.70;1796110;79;21200;-51
2021/04/18 02:34:41;;;;;;;19.65;12.45;;;;;;;5.56;100.00;101117.48;1795009;79;21164;-51
2021/04/18 02:37:10;;;;;;;21.27;12.93;;;;;;;5.66;100.00;101122.71;1796438;79;21140;-51
2021/04/18 02:39:38;;;;;;;24.85;15.72;;;;;;;5.75;100.00;101127.97;1796608;79;21045;-51
2021/04/18 02:42:06;;;;;;;31.93;18.42;;;;;;;5.82;100.00;101128.77;1796747;79;21188;-51
2021/04/18 02:44:35;;;;;;;39.95;19.27;;;;;;;5.85;100.00;101126.08;1796515;79;21759;-51
2021/04/18 02:47:04;;;;;;;29.60;18.25;;;;;;;5.84;100.00;101130.97;1796568;79;21137;-51
2021/04/18 02:49:32;;;;;;;27.80;17.10;;;;;;;5.76;100.00;101118.19;1763212;79;21556;-51
2021/04/18 02:52:00;;;;;;;27.13;17.80;;;;;;;5.76;100.00;101118.19;1796572;79;21140;-59
2021/04/18 02:54:28;;;;;;;26.60;16.82;;;;;;;5.77;100.00;101125.27;1796513;79;21100;-51
2021/04/18 02:56:57;;;;;;;27.58;17.87;;;;;;;5.75;100.00;101122.65;1783558;79;21650;-51
2021/04/18 02:59:25;;;;;;;31.73;17.40;;;;;;;5.75;100.00;101121.32;1764741;81;21094;-51
2021/04/18 03:01:54;;;;;;;24.95;17.50;;;;;;;5.74;100.00;101126.17;1764933;81;20995;-51
2021/04/18 03:04:22;;;;;;;26.00;16.48;;;;;;;5.65;100.00;101121.84;1764822;81;21145;-51
2021/04/18 03:06:50;;;;;;;29.92;17.12;;;;;;;5.65;100.00;101121.84;1764907;81;21157;-51
2021/04/18 03:09:18;;;;;;;26.73;16.52;;;;;;;5.67;100.00;101120.48;1764990;81;22356;-51
2021/04/18 03:11:49;;;;;;;30.32;17.62;;;;;;;5.67;100.00;101120.05;1764805;81;21097;-50
2021/04/18 03:14:25;;;;;;;32.75;16.90;;;;;;;5.67;100.00;101120.05;1764764;81;21102;-51
2021/04/18 03:16:54;;;;;;;24.40;15.70;;;;;;;5.66;100.00;101115.63;1764917;81;21138;-51
2021/04/18 03:19:24;;;;;;;32.45;16.85;;;;;;;5.66;100.00;101111.64;1765035;81;21109;-51
2021/04/18 03:21:53;;;;;;;32.13;18.65;;;;;;;5.66;100.00;101111.64;1764573;81;21221;-50
2021/04/18 03:24:22;;;;;;;38.50;17.82;;;;;;;5.66;100.00;101115.63;1764901;81;21121;-51
2021/04/18 03:26:51;;;;;;;34.35;17.75;;;;;;;5.68;100.00;101121.81;1764897;81;21188;-51
2021/04/18 03:29:19;;;;;;;36.48;18.67;;;;;;;5.69;100.00;101118.69;1765001;81;21055;-51
2021/04/18 03:31:47;;;;;;;32.88;18.75;;;;;;;5.76;100.00;101123.52;1764988;81;22098;-51
2021/04/18 03:34:15;;;;;;;34.43;18.95;;;;;;;5.80;100.00;101126.58;1732867;81;21615;-51
2021/04/18 03:36:43;;;;;;;32.65;19.92;;;;;;;5.85;100.00;101131.40;1764951;81;21078;-51
2021/04/18 03:39:16;;;;;;;35.23;21.10;;;;;;;5.92;100.00;101126.91;1764714;81;21097;-50
2021/04/18 03:41:45;;;;;;;38.65;20.92;;;;;;;5.99;100.00;101130.83;1764929;81;21062;-50
2021/04/18 03:44:14;;;;;;;35.25;21.30;;;;;;;6.09;100.00;101134.78;1764913;81;21154;-52
2021/04/18 03:46:43;;;;;;;37.25;20.90;;;;;;;6.12;100.00;101137.41;1764969;81;21430;-50
2021/04/18 03:49:13;;;;;;;39.13;22.20;;;;;;;6.17;100.00;101140.90;1764741;81;21144;-50
2021/04/18 03:51:44;;;;;;;42.03;23.30;;;;;;;6.17;100.00;101140.90;1764317;81;21177;-50
2021/04/18 03:54:12;;;;;;;36.90;19.40;;;;;;;6.19;100.00;101144.42;1764983;81;21177;-50
2021/04/18 03:56:41;;;;;;;39.73;21.12;;;;;;;6.18;100.00;101147.98;1774105;79;21191;-50
2021/04/18 03:59:09;;;;;;;35.48;21.35;;;;;;;6.12;100.00;101146.27;1796640;79;21366;-50
2021/04/18 04:01:38;;;;;;;44.25;21.82;;;;;;;6.09;100.00;101146.77;1796572;79;21108;-50
2021/04/18 04:04:08;;;;;;;38.90;21.82;;;;;;;6.09;100.00;101141.44;1796658;79;21073;-50
2021/04/18 04:06:38;;;;;;;31.25;18.67;;;;;;;6.13;100.00;101134.71;1795907;79;21089;-51
2021/04/18 04:09:06;;;;;;;36.13;20.82;;;;;;;6.20;100.00;101143.52;1796758;79;21481;-52
2021/04/18 04:11:39;;;;;;;35.30;20.70;;;;;;;6.20;100.00;101143.52;1796112;79;21714;-51
2021/04/18 04:14:08;;;;;;;36.95;20.90;;;;;;;6.25;100.00;101156.33;1796469;79;21104;-50
2021/04/18 04:16:38;;;;;;;39.48;19.57;;;;;;;6.35;100.00;101151.80;1795483;79;21140;-50
2021/04/18 04:19:06;;;;;;;44.77;21.73;;;;;;;6.43;100.00;101155.27;1796556;79;21140;-51
2021/04/18 04:21:52;;;;;;;58.60;18.45;;;;;;;6.46;100.00;101150.34;1796733;79;21148;-51
2021/04/18 04:24:24;;;;;;;34.80;15.88;;;;;;;6.46;100.00;101150.34;1796214;79;21379;-51
2021/04/18 04:26:52;;;;;;;37.55;16.80;;;;;;;6.51;100.00;101155.16;1796524;79;21128;-51
2021/04/18 04:29:20;;;;;;;30.43;14.25;;;;;;;6.57;100.00;101147.55;1796625;79;21176;-51
2021/04/18 04:31:47;;;;;;;37.45;14.85;;;;;;;6.62;100.00;101143.05;1796584;79;21054;-51
2021/04/18 04:34:15;;;;;;;37.60;15.08;;;;;;;6.67;100.00;101146.55;1796626;79;21073;-51
2021/04/18 04:36:43;;;;;;;40.70;17.12;;;;;;;6.70;100.00;101145.62;1796612;79;21203;-51
2021/04/18 04:39:11;;;;;;;38.70;16.23;;;;;;;6.73;100.00;101145.14;1796398;79;21148;-51
2021/04/18 04:41:38;;;;;;;30.97;13.70;;;;;;;6.78;100.00;101138.42;1796648;79;21077;-51
2021/04/18 04:44:08;;;;;;;18.87;11.48;;;;;;;6.88;100.00;101140.05;1796537;79;21058;-51
2021/04/18 04:46:36;;;;;;;21.85;11.40;;;;;;;6.94;100.00;101138.20;1796684;79;21070;-51
2021/04/18 04:49:04;;;;;;;17.30;11.65;;;;;;;6.82;100.00;101145.91;1796592;79;21430;-51
2021/04/18 04:51:32;;;;;;;39.10;13.65;;;;;;;6.68;100.00;101151.42;1796515;79;21103;-51
2021/04/18 04:53:59;;;;;;;29.15;11.93;;;;;;;6.54;100.00;101139.17;1796668;79;21073;-51
2021/04/18 04:56:27;;;;;;;35.83;12.78;;;;;;;6.47;100.00;101137.45;1790380;79;21074;-51
2021/04/18 04:58:55;;;;;;;47.25;14.83;;;;;;;6.45;100.00;101135.27;1764959;81;21046;-51
2021/04/18 05:01:23;;;;;;;24.45;14.28;;;;;;;6.43;100.00;101133.06;1764837;81;21384;-51
2021/04/18 05:03:51;;;;;;;25.32;13.38;;;;;;;6.38;100.00;101124.25;1764951;81;21211;-51
2021/04/18 05:06:19;;;;;;;24.02;12.58;;;;;;;6.40;100.00;101129.11;1764872;81;21157;-52
2021/04/18 05:08:47;;;;;;;24.47;14.25;;;;;;;6.47;100.00;101124.60;1764892;81;21118;-52
2021/04/18 05:11:15;;;;;;;26.12;13.98;;;;;;;6.52;100.00;101129.41;1764875;81;21130;-52
2021/04/18 05:13:42;;;;;;;24.00;12.47;;;;;;;6.62;100.00;101134.19;1764898;81;21389;-51
2021/04/18 05:16:10;;;;;;;27.65;14.68;;;;;;;6.73;100.00;101129.59;1764729;81;21165;-50
2021/04/18 05:18:43;;;;;;;43.60;13.68;;;;;;;6.83;100.00;101133.91;1764392;81;21152;-50
2021/04/18 05:21:12;;;;;;;37.98;12.47;;;;;;;6.93;100.00;101136.00;1764869;81;21170;-51
2021/04/18 05:23:40;;;;;;;29.48;11.63;;;;;;;7.00;100.00;101138.14;1764912;81;21569;-50
2021/04/18 05:26:09;;;;;;;26.25;11.50;;;;;;;7.10;100.00;101137.09;1764889;81;21375;-50
2021/04/18 05:28:38;;;;;;;19.48;10.40;;;;;;;7.18;100.00;101143.65;1764750;81;21069;-50
2021/04/18 05:31:06;;;;;;;27.48;12.25;;;;;;;7.23;100.00;101136.92;1764873;81;21070;-50
2021/04/18 05:33:34;;;;;;;20.15;10.63;;;;;;;7.24;100.00;101143.55;1764797;81;21154;-51
2021/04/18 05:36:04;;;;;;;23.10;11.28;;;;;;;7.29;100.00;101140.83;1764860;81;21189;-51
2021/04/18 05:38:31;;;;;;;21.10;11.38;;;;;;;7.40;100.00;101133.99;1764733;81;21613;-50
2021/04/18 05:41:00;;;;;;;26.77;11.88;;;;;;;7.53;100.00;101140.01;1764639;81;21150;-50
2021/04/18 05:43:28;;;;;;;19.00;11.78;;;;;;;7.67;100.00;101143.34;1764617;81;21138;-51
2021/04/18 05:45:55;;;;;;;22.90;12.68;;;;;;;7.77;100.00;101140.51;1764571;81;21121;-51
2021/04/18 05:48:23;;;;;;;24.82;13.50;;;;;;;7.81;100.00;101151.13;1764589;81;21141;-51
2021/04/18 05:50:51;;;;;;;22.37;12.75;;;;;;;7.88;100.00;101155.91;1764548;81;21388;-50
2021/04/18 05:53:18;;;;;;;22.75;13.35;;;;;;;7.97;100.00;101162.87;1764498;81;21490;-51
2021/04/18 05:55:47;;;;;;;22.55;13.38;;;;;;;8.07;100.00;101166.23;1764505;81;21101;-52
2021/04/18 05:58:16;;;;;;;21.93;13.95;;;;;;;8.19;100.00;101170.03;1795563;79;21125;-51
2021/04/18 06:00:43;;;;;;;23.92;13.83;;;;;;;8.29;100.00;101172.08;1797693;79;21121;-50
2021/04/18 06:03:11;;;;;;;21.37;13.60;;;;;;;8.36;100.00;101171.05;1797688;79;21374;-50
2021/04/18 06:05:40;;;;;;;23.77;14.45;;;;;;;8.38;100.00;101178.58;1797581;79;21133;-51
2021/04/18 06:08:09;;;;;;;28.92;15.75;;;;;;;8.41;100.00;101164.28;1797811;79;21094;-51
2021/04/18 06:10:36;;;;;;;21.60;13.40;;;;;;;8.48;100.00;101168.59;1797710;79;21050;-51
2021/04/18 06:13:04;;;;;;;22.37;14.65;;;;;;;8.50;99.25;101170.80;1797678;79;21097;-51
2021/04/18 06:15:32;;;;;;;23.02;14.58;;;;;;;8.52;97.75;101170.80;1797628;79;21313;-50
2021/04/18 06:18:01;;;;;;;22.98;14.75;;;;;;;8.55;96.70;101175.63;1797577;79;21156;-52
2021/04/18 06:20:29;;;;;;;22.90;14.15;;;;;;;8.57;95.86;101179.59;1797696;79;21065;-50
2021/04/18 06:22:56;;;;;;;25.80;14.15;;;;;;;8.55;95.51;101190.77;1797725;79;21050;-51
2021/04/18 06:25:25;;;;;;;22.90;14.90;;;;;;;8.54;95.33;101181.89;1797754;79;21176;-50
2021/04/18 06:27:53;;;;;;;24.60;13.83;;;;;;;8.53;95.08;101185.91;1797631;79;21204;-51
2021/04/18 06:30:21;;;;;;;30.35;15.95;;;;;;;8.58;95.57;101184.92;1797647;79;21137;-50
2021/04/18 06:32:49;;;;;;;23.67;15.08;;;;;;;8.69;95.28;101179.80;1797632;79;21133;-51
2021/04/18 06:35:17;;;;;;;28.40;16.25;;;;;;;8.86;94.93;101184.35;1797590;79;21189;-50
2021/04/18 06:37:44;;;;;;;31.73;17.90;;;;;;;9.08;93.95;101179.02;1797593;79;21110;-51
2021/04/18 06:40:13;;;;;;;28.02;16.20;;;;;;;9.29;92.76;101182.55;1796663;79;21362;-51
2021/04/18 06:42:40;;;;;;;24.65;15.43;;;;;;;9.47;90.79;101180.34;1796538;79;21577;-52
2021/04/18 06:45:10;;;;;;;26.80;15.95;;;;;;;9.60;89.29;101183.60;1789543;80;21054;-52
2021/04/18 06:47:38;;;;;;;22.42;16.32;;;;;;;9.71;89.41;101183.34;1810418;79;21059;-50
2021/04/18 06:50:08;;;;;;;21.85;15.70;;;;;;;9.79;88.20;101184.50;1789565;80;21467;-52
2021/04/18 06:52:36;;;;;;;28.52;15.95;;;;;;;9.83;86.69;101188.86;1810498;79;21192;-52
2021/04/18 06:55:07;;;;;;;29.90;16.27;;;;;;;9.83;86.29;101186.17;1789370;80;21149;-52
2021/04/18 06:57:35;;;;;;;32.45;16.70;;;;;;;9.82;86.76;101183.08;1784330;79;21132;-51
2021/04/18 07:00:06;;;;;;;32.40;17.67;;;;;;;9.85;87.35;101184.38;1825201;78;21214;-52
2021/04/18 07:02:34;;;;;;;35.98;16.93;;;;;;;9.87;87.24;101178.52;1825123;78;21119;-52
2021/04/18 07:05:09;;;;;;;29.42;17.65;;;;;;;9.91;86.39;101174.83;1825026;78;21602;-52
2021/04/18 07:07:42;;;;;;;29.25;17.27;;;;;;;9.97;86.74;101180.02;1825242;78;21058;-51
2021/04/18 07:10:13;;;;;;;29.25;16.70;;;;;;;10.05;86.26;101175.81;1825103;78;21068;-52
2021/04/18 07:12:42;;;;;;;27.17;16.50;;;;;;;10.15;85.72;101178.66;1825039;78;21206;-52
2021/04/18 07:15:10;;;;;;;31.23;15.55;;;;;;;10.23;84.53;101174.44;1825111;78;21115;-53
2021/04/18 07:17:50;;;;;;;46.37;16.23;;;;;;;10.34;83.88;101175.97;1795425;78;21366;-52
2021/04/18 07:20:18;;;;;;;30.12;15.28;;;;;;;10.41;81.23;101173.11;1825060;78;21084;-52
2021/04/18 07:22:46;;;;;;;27.17;14.53;;;;;;;10.50;81.79;101166.62;1825015;78;21056;-52
2021/04/18 07:25:14;;;;;;;40.88;14.60;;;;;;;10.57;79.52;101161.48;1795738;78;21155;-52
2021/04/18 07:27:48;;;;;;;31.12;14.10;;;;;;;10.66;77.76;101156.78;1825088;78;21194;-52
2021/04/18 07:30:19;;;;;;;24.45;14.33;;;;;;;10.76;75.15;101159.63;1825239;78;21199;-52
2021/04/18 07:32:48;;;;;;;23.15;13.10;;;;;;;10.83;72.90;101163.88;1825052;78;20890;-52
2021/04/18 07:35:36;;;;;;;32.70;14.38;;;;;;;10.91;72.83;101158.28;1796057;78;21051;-52
2021/04/18 07:38:21;;;;;;;29.30;14.15;;;;;;;10.98;70.67;101156.30;1825035;78;21095;-51
2021/04/18 07:40:56;;;;;;;23.32;13.13;;;;;;;11.09;69.70;101154.16;1798204;78;21060;-51
2021/04/18 07:43:23;;;;;;;28.47;14.97;;;;;;;11.18;68.70;101138.23;1796010;80;21362;-51
2021/04/18 07:45:51;;;;;;;32.28;13.65;;;;;;;11.17;70.79;101134.69;1795557;79;21210;-52
2021/04/18 07:48:19;;;;;;;27.58;12.68;;;;;;;11.23;72.19;101141.64;1795761;80;21076;-51
2021/04/18 07:50:48;;;;;;;25.02;13.48;;;;;;;11.30;72.68;101142.34;1795819;79;22052;-51
2021/04/18 07:53:21;;;;;;;19.17;11.95;;;;;;;11.42;71.43;101143.30;1795766;79;21426;-52
2021/04/18 07:55:48;;;;;;;19.92;11.85;;;;;;;11.58;69.77;101150.83;1795878;79;21259;-52
2021/04/18 07:58:17;;;;;;;14.13;10.63;;;;;;;11.69;68.91;101139.28;1793841;79;21083;-52
2021/04/18 08:00:45;;;;;;;13.60;10.00;;;;;;;11.79;68.20;101140.30;1738794;82;21078;-52
2021/04/18 08:03:13;;;;;;;22.17;11.73;;;;;;;11.78;65.15;101143.92;1793841;80;21102;-52
2021/04/18 08:05:41;;;;;;;20.68;12.15;;;;;;;11.77;67.06;101147.54;1794005;80;21553;-52
2021/04/18 08:08:13;;;;;;;14.45;10.82;;;;;;;11.73;67.76;101146.30;1738692;82;21395;-52
2021/04/18 08:10:50;;;;;;;25.32;11.83;;;;;;;11.74;69.32;101145.37;1793826;80;21170;-52
2021/04/18 08:13:22;;;;;;;18.90;12.10;;;;;;;11.73;70.00;101140.94;1793874;80;21134;-52
2021/04/18 08:16:04;;;;;;;14.95;9.65;;;;;;;11.67;70.32;101145.63;1793836;80;21166;-51
2021/04/18 08:18:40;;;;;;;15.58;11.18;;;;;;;11.67;68.03;101138.46;1793865;80;21105;-52
2021/04/18 08:21:31;;;;;;;20.43;10.95;;;;;;;11.73;68.46;101135.56;1738693;82;21655;-51
2021/04/18 08:24:00;;;;;;;21.77;12.47;;;;;;;11.83;70.46;101134.78;1793937;80;21475;-51
2021/04/18 08:26:33;;;;;;;21.25;11.80;;;;;;;11.82;69.97;101134.82;1738764;82;21078;-51
2021/04/18 08:29:05;;;;;;;19.45;13.80;;;;;;;11.73;71.10;101127.98;1793894;80;21161;-51
2021/04/18 08:31:53;;;;;;;17.02;13.90;;;;;;;11.64;73.20;101125.14;1793818;80;21113;-51
2021/04/18 08:34:32;;;;;;;15.80;12.93;;;;;;;11.61;75.14;101126.59;1738750;82;21414;-51
2021/04/18 08:37:02;;;;;;;16.32;12.18;;;;;;;11.59;76.42;101127.97;1793840;80;21213;-51
2021/04/18 08:39:37;;;;;;;14.95;10.93;;;;;;;11.57;75.91;101119.54;1745144;81;21141;-52
2021/04/18 08:42:06;;;;;;;19.20;13.72;;;;;;;11.52;75.13;101120.16;1791347;80;21119;-51
2021/04/18 08:44:43;;;;;;;19.85;12.43;;;;;;;11.46;75.93;101118.09;1767565;81;21583;-51
2021/04/18 08:47:15;;;;;;;12.18;9.98;;;;;;;11.50;74.76;101107.25;1779198;80;21371;-51
2021/04/18 08:49:47;;;;;;;11.85;9.93;;;;;;;11.54;73.30;101108.91;1767543;81;21113;-52
2021/04/18 08:52:23;;;;;;;13.28;9.68;;;;;;;11.58;72.63;101100.70;1779135;80;21550;-53
2021/04/18 08:54:52;;;;;;;11.97;7.65;;;;;;;11.59;71.84;101102.91;1767748;81;21038;-51
2021/04/18 08:57:29;;;;;;;12.28;9.05;;;;;;;11.52;70.12;101104.05;1792187;80;21125;-51
2021/04/18 09:00:03;;;;;;;12.63;9.25;;;;;;;11.45;69.33;101101.58;1817407;79;21123;-51
2021/04/18 09:02:31;;;;;;;10.78;8.55;;;;;;;11.41;70.84;101093.22;1817368;79;26575;-51
2021/04/18 09:05:01;;;;;;;11.43;8.28;;;;;;;11.33;71.27;101091.23;1817561;79;21458;-51
2021/04/18 09:07:33;;;;;;;10.58;7.05;;;;;;;11.27;70.93;101099.48;1817446;79;21575;-51
2021/04/18 09:10:08;;;;;;;11.65;7.50;;;;;;;11.23;67.69;101094.67;1817463;79;21547;-51
2021/04/18 09:12:37;;;;;;;14.50;7.95;;;;;;;11.21;68.04;101098.36;1817520;79;21202;-51
2021/04/18 09:15:06;;;;;;;14.98;8.05;;;;;;;11.21;69.28;101092.98;1817258;79;21126;-51
2021/04/18 09:17:34;;;;;;;14.55;8.38;;;;;;;11.23;69.28;101091.13;1817356;79;21030;-52
2021/04/18 09:20:06;;;;;;;18.02;8.15;;;;;;;11.29;68.89;101089.58;1817426;79;21564;-51
2021/04/18 09:22:39;;;;;;;12.00;9.28;;;;;;;11.31;68.46;101092.64;1817412;79;21126;-51
2021/04/18 09:25:13;;;;;;;12.43;8.88;;;;;;;11.32;68.54;101086.34;1817315;79;21179;-51
2021/04/18 09:27:52;;;;;;;11.80;8.80;;;;;;;11.29;68.96;101083.77;1817595;79;21149;-51
2021/04/18 09:30:22;;;;;;;10.80;7.78;;;;;;;11.30;68.95;101075.23;1817417;79;21455;-51
2021/04/18 09:32:54;;;;;;;12.30;8.80;;;;;;;11.28;69.55;101073.95;1814613;79;21058;-51
2021/04/18 09:35:25;;;;;;;;;;;;;;;11.27;69.22;101069.52;1820054;79;21099;-52
2021/04/18 09:38:01;;;;;;;11.30;7.95;;;;;;;11.30;68.66;101072.55;1817409;79;22067;-51
2021/04/18 09:40:31;;;;;;;11.57;8.55;;;;;;;11.35;68.58;101077.29;1824058;78;21054;-51
2021/04/18 09:43:03;;;;;;;13.62;8.55;;;;;;;11.42;68.87;101074.84;1831155;78;21062;-51
2021/04/18 09:45:31;;;;;;;11.90;8.10;;;;;;;11.54;68.81;101074.00;1831255;78;21085;-51
2021/04/18 09:48:14;;;;;;;15.00;7.75;;;;;;;11.61;67.95;101074.22;1831244;78;21065;-51
2021/04/18 09:50:42;;;;;;;12.15;6.55;;;;;;;11.66;66.85;101084.33;1831292;78;21241;-52
2021/04/18 09:53:29;;;;;;;11.30;6.67;;;;;;;11.75;64.74;101087.17;1831187;78;21073;-52
2021/04/18 09:56:08;;;;;;;14.05;7.83;;;;;;;11.80;63.80;101086.53;1831195;78;21078;-52
2021/04/18 09:58:38;;;;;;;13.65;7.58;;;;;;;11.82;63.84;101087.81;1798565;79;21123;-52
2021/04/18 10:01:32;;;;;;;10.58;7.08;;;;;;;11.82;63.49;101085.13;1796275;79;21048;-55
2021/04/18 10:03:59;;;;;;;8.90;6.45;;;;;;;11.83;62.84;101082.88;1796333;79;21198;-53
2021/04/18 10:06:44;;;;;;;10.65;7.30;;;;;;;11.88;61.55;101082.24;1796196;79;21084;-52
2021/04/18 10:09:13;;;;;;;12.90;7.37;;;;;;;11.93;61.23;101085.64;1796219;79;21154;-52
2021/04/18 10:12:00;;;;;;;12.73;7.33;;;;;;;11.98;63.22;101075.59;1796263;79;21148;-52
2021/04/18 10:14:29;;;;;;;9.63;6.92;;;;;;;12.02;63.36;101075.92;1766957;80;21065;-51
2021/04/18 10:16:58;;;;;;;11.85;7.97;;;;;;;12.12;62.29;101067.06;1766944;81;20955;-52
2021/04/18 10:19:28;;;;;;;14.13;8.58;;;;;;;12.24;62.57;101064.88;1752019;81;21098;-53
2021/04/18 10:22:08;;;;;;;13.72;8.15;;;;;;;12.36;63.30;101066.23;1767126;81;21050;-53
2021/04/18 10:24:44;;;;;;;12.10;7.85;;;;;;;12.30;64.37;101066.88;1766967;80;21074;-53
2021/04/18 10:27:13;;;;;;;10.80;7.72;;;;;;;12.18;63.76;101070.00;1767061;81;21107;-52
2021/04/18 10:29:42;;;;;;;11.65;7.62;;;;;;;12.18;63.14;101067.31;1767172;81;22025;-52
2021/04/18 10:32:11;;;;;;;10.98;7.35;;;;;;;12.16;63.19;101067.84;1766317;80;21201;-53
2021/04/18 10:34:40;;;;;;;10.63;7.30;;;;;;;12.22;60.90;101077.02;1767087;81;21130;-52
2021/04/18 10:37:10;;;;;;;13.58;8.70;;;;;;;12.28;61.01;101073.23;1766927;81;21055;-52
2021/04/18 10:39:39;;;;;;;12.25;8.15;;;;;;;12.39;62.06;101074.17;1766918;81;21041;-52
2021/04/18 10:42:07;;;;;;;14.05;7.90;;;;;;;12.47;62.01;101076.09;1758267;81;21698;-52
2021/04/18 10:44:35;;;;;;;11.63;7.60;;;;;;;12.53;60.60;101070.51;1758343;81;21011;-52
2021/04/18 10:47:16;;;;;;;8.83;6.30;;;;;;;12.59;59.71;101076.09;1758345;81;21025;-52
2021/04/18 10:49:37;;;;;;;8.48;6.60;;;;;;;12.70;59.21;101083.30;1758603;80;21090;-52
2021/04/18 10:52:05;;;;;;;8.55;6.08;;;;;;;12.80;59.09;101074.41;1758472;81;21129;-52
2021/04/18 10:54:33;;;;;;;7.25;5.42;;;;;;;12.90;58.88;101069.05;1758473;81;21254;-52
2021/04/18 10:57:00;;;;;;;9.83;6.95;;;;;;;13.03;56.88;101069.44;1771441;80;21189;-52
2021/04/18 10:59:28;;;;;;;10.25;5.75;;;;;;;13.14;55.50;101073.53;1796601;79;21455;-52
2021/04/18 11:01:56;;;;;;;12.95;5.87;;;;;;;13.17;55.16;101068.91;1789605;80;21134;-52
2021/04/18 11:04:24;;;;;;;8.08;5.87;;;;;;;13.16;53.86;101071.19;1810376;79;21142;-52
2021/04/18 11:06:52;;;;;;;8.50;5.30;;;;;;;13.17;53.90;101074.29;1810483;79;21207;-52
2021/04/18 11:09:19;;;;;;;8.58;4.92;;;;;;;13.23;53.03;101068.23;1789554;80;21125;-52
2021/04/18 11:11:47;;;;;;;13.38;5.50;;;;;;;13.28;52.43;101069.81;1810428;79;21115;-52
2021/04/18 11:14:16;;;;;;;18.92;4.70;;;;;;;13.30;52.02;101060.30;1789528;80;21049;-52
2021/04/18 11:16:44;;;;;;;11.15;4.30;;;;;;;13.30;51.80;101065.69;1810458;79;21103;-52
2021/04/18 11:19:12;;;;;;;23.02;6.00;;;;;;;13.30;51.62;101060.30;1789525;80;21777;-52
2021/04/18 11:21:40;;;;;;;34.08;5.62;;;;;;;13.26;51.07;101058.69;1810323;79;21051;-52
2021/04/18 11:24:08;;;;;;;39.70;4.97;;;;;;;13.24;52.66;101056.05;1789625;79;21066;-51